sensor_id;sensor_type;location;lat;lon;timestamp;pressure;altitude;pressure_sealevel;temperature;humidity
8280;BME280;8335;42.646;23.380;2022-09-09T00:00:48;94646.56;;;18.97;85.68
8280;BME280;8335;42.646;23.380;2022-09-09T00:03:18;94646.00;;;18.94;85.80
8280;BME280;8335;42.646;23.380;2022-09-09T00:05:52;94631.69;;;18.90;86.26
8280;BME280;8335;42.646;23.380;2022-09-09T00:08:30;94636.31;;;18.86;86.08
8280;BME280;8335;42.646;23.380;2022-09-09T00:11:03;94633.97;;;18.83;86.78
8280;BME280;8335;42.646;23.380;2022-09-09T00:13:35;94639.63;;;18.77;87.12
8280;BME280;8335;42.646;23.380;2022-09-09T00:16:07;94635.91;;;18.70;87.00
8280;BME280;8335;42.646;23.380;2022-09-09T00:18:41;94642.13;;;18.67;87.03
8280;BME280;8335;42.646;23.380;2022-09-09T00:21:13;94638.03;;;18.65;87.17
8280;BME280;8335;42.646;23.380;2022-09-09T00:23:46;94631.59;;;18.59;87.76
8280;BME280;8335;42.646;23.380;2022-09-09T00:26:20;94629.44;;;18.64;87.32
8280;BME280;8335;42.646;23.380;2022-09-09T00:28:57;94594.03;;;18.46;87.31
8280;BME280;8335;42.646;23.380;2022-09-09T00:31:29;94616.25;;;18.58;87.28
8280;BME280;8335;42.646;23.380;2022-09-09T00:34:04;94607.81;;;18.56;86.96
8280;BME280;8335;42.646;23.380;2022-09-09T00:36:37;94623.53;;;18.53;87.02
8280;BME280;8335;42.646;23.380;2022-09-09T00:39:10;94612.31;;;18.42;87.26
8280;BME280;8335;42.646;23.380;2022-09-09T00:41:48;94606.81;;;18.36;87.52
8280;BME280;8335;42.646;23.380;2022-09-09T00:44:30;94612.50;;;18.30;87.68
8280;BME280;8335;42.646;23.380;2022-09-09T00:47:12;94596.94;;;18.20;88.33
8280;BME280;8335;42.646;23.380;2022-09-09T00:49:52;94591.59;;;18.12;88.78
8280;BME280;8335;42.646;23.380;2022-09-09T00:52:32;94600.63;;;18.06;89.38
8280;BME280;8335;42.646;23.380;2022-09-09T00:55:07;94592.81;;;17.97;89.38
8280;BME280;8335;42.646;23.380;2022-09-09T00:57:38;94597.81;;;17.98;89.36
8280;BME280;8335;42.646;23.380;2022-09-09T01:00:21;94584.19;;;17.86;89.46
8280;BME280;8335;42.646;23.380;2022-09-09T01:03:18;94598.22;;;17.94;89.90
8280;BME280;8335;42.646;23.380;2022-09-09T01:05:57;94599.25;;;17.91;89.80
8280;BME280;8335;42.646;23.380;2022-09-09T01:08:46;94595.28;;;17.87;90.03
8280;BME280;8335;42.646;23.380;2022-09-09T01:11:21;94582.75;;;17.82;89.59
8280;BME280;8335;42.646;23.380;2022-09-09T01:13:55;94600.31;;;17.88;89.43
8280;BME280;8335;42.646;23.380;2022-09-09T01:16:26;94597.41;;;17.93;89.19
8280;BME280;8335;42.646;23.380;2022-09-09T01:18:56;94605.00;;;17.95;89.17
8280;BME280;8335;42.646;23.380;2022-09-09T01:21:32;94585.81;;;17.87;88.91
8280;BME280;8335;42.646;23.380;2022-09-09T01:24:18;94607.78;;;18.03;88.74
8280;BME280;8335;42.646;23.380;2022-09-09T01:26:50;94609.28;;;18.05;88.19
8280;BME280;8335;42.646;23.380;2022-09-09T01:29:19;94603.19;;;18.06;87.97
8280;BME280;8335;42.646;23.380;2022-09-09T01:31:54;94586.69;;;18.09;87.95
8280;BME280;8335;42.646;23.380;2022-09-09T01:34:23;94578.75;;;18.01;87.79
8280;BME280;8335;42.646;23.380;2022-09-09T01:36:56;94593.25;;;18.02;88.09
8280;BME280;8335;42.646;23.380;2022-09-09T01:39:24;94590.69;;;18.02;88.17
8280;BME280;8335;42.646;23.380;2022-09-09T01:41:54;94609.16;;;18.07;88.13
8280;BME280;8335;42.646;23.380;2022-09-09T01:44:22;94608.34;;;18.06;88.09
8280;BME280;8335;42.646;23.380;2022-09-09T01:46:49;94609.28;;;18.05;88.37
8280;BME280;8335;42.646;23.380;2022-09-09T01:49:17;94612.81;;;18.04;88.43
8280;BME280;8335;42.646;23.380;2022-09-09T01:51:47;94604.13;;;18.05;88.13
8280;BME280;8335;42.646;23.380;2022-09-09T01:54:15;94612.44;;;18.09;87.88
8280;BME280;8335;42.646;23.380;2022-09-09T01:56:50;94615.72;;;18.11;87.40
8280;BME280;8335;42.646;23.380;2022-09-09T01:59:35;94625.34;;;18.09;87.25
8280;BME280;8335;42.646;23.380;2022-09-09T02:02:10;94603.56;;;18.02;87.16
8280;BME280;8335;42.646;23.380;2022-09-09T02:04:39;94613.13;;;18.11;87.02
8280;BME280;8335;42.646;23.380;2022-09-09T02:07:15;94617.22;;;18.13;86.92
8280;BME280;8335;42.646;23.380;2022-09-09T02:09:47;94616.41;;;18.13;86.83
8280;BME280;8335;42.646;23.380;2022-09-09T02:12:18;94611.50;;;18.10;87.00
8280;BME280;8335;42.646;23.380;2022-09-09T02:14:54;94605.66;;;18.08;87.40
8280;BME280;8335;42.646;23.380;2022-09-09T02:17:26;94613.13;;;18.11;87.75
8280;BME280;8335;42.646;23.380;2022-09-09T02:19:57;94605.53;;;18.09;87.81
8280;BME280;8335;42.646;23.380;2022-09-09T02:22:27;94604.84;;;18.07;88.46
8280;BME280;8335;42.646;23.380;2022-09-09T02:24:57;94589.97;;;18.00;88.89
8280;BME280;8335;42.646;23.380;2022-09-09T02:27:25;94592.81;;;17.97;88.14
8280;BME280;8335;42.646;23.380;2022-09-09T02:29:54;94564.41;;;17.76;87.93
8280;BME280;8335;42.646;23.380;2022-09-09T02:32:24;94597.41;;;17.82;88.66
8280;BME280;8335;42.646;23.380;2022-09-09T02:34:55;94598.69;;;17.76;88.83
8280;BME280;8335;42.646;23.380;2022-09-09T02:37:29;94593.16;;;17.70;88.98
8280;BME280;8335;42.646;23.380;2022-09-09T02:39:58;94596.13;;;17.65;89.17
8280;BME280;8335;42.646;23.380;2022-09-09T02:42:25;94608.06;;;17.66;88.96
8280;BME280;8335;42.646;23.380;2022-09-09T02:44:54;94602.78;;;17.68;89.07
8280;BME280;8335;42.646;23.380;2022-09-09T02:47:26;94593.66;;;17.64;89.08
8280;BME280;8335;42.646;23.380;2022-09-09T02:50:05;94589.81;;;17.58;88.86
8280;BME280;8335;42.646;23.380;2022-09-09T02:52:41;94621.50;;;17.70;88.99
8280;BME280;8335;42.646;23.380;2022-09-09T02:55:17;94624.31;;;17.67;89.37
8280;BME280;8335;42.646;23.380;2022-09-09T02:57:47;94614.16;;;17.65;89.74
8280;BME280;8335;42.646;23.380;2022-09-09T03:00:16;94608.19;;;17.65;89.81
8280;BME280;8335;42.646;23.380;2022-09-09T03:02:49;94609.00;;;17.65;90.08
8280;BME280;8335;42.646;23.380;2022-09-09T03:05:16;94600.13;;;17.58;90.58
8280;BME280;8335;42.646;23.380;2022-09-09T03:07:43;94608.75;;;17.57;90.31
8280;BME280;8335;42.646;23.380;2022-09-09T03:10:10;94601.53;;;17.51;90.62
8280;BME280;8335;42.646;23.380;2022-09-09T03:12:37;94614.50;;;17.49;91.37
8280;BME280;8335;42.646;23.380;2022-09-09T03:15:04;94618.72;;;17.50;91.71
8280;BME280;8335;42.646;23.380;2022-09-09T03:17:33;94619.88;;;17.46;91.92
8280;BME280;8335;42.646;23.380;2022-09-09T03:20:01;94620.13;;;17.43;92.53
8280;BME280;8335;42.646;23.380;2022-09-09T03:22:28;94512.75;;;16.78;93.29
8280;BME280;8335;42.646;23.380;2022-09-09T03:24:54;94613.69;;;17.38;94.41
8280;BME280;8335;42.646;23.380;2022-09-09T03:27:21;94612.16;;;17.35;95.52
8280;BME280;8335;42.646;23.380;2022-09-09T03:29:48;94615.78;;;17.32;96.10
8280;BME280;8335;42.646;23.380;2022-09-09T03:32:16;94611.34;;;17.23;96.78
8280;BME280;8335;42.646;23.380;2022-09-09T03:34:45;94612.63;;;17.18;97.01
8280;BME280;8335;42.646;23.380;2022-09-09T03:37:14;94614.25;;;17.19;97.04
8280;BME280;8335;42.646;23.380;2022-09-09T03:39:42;94613.44;;;17.18;97.52
8280;BME280;8335;42.646;23.380;2022-09-09T03:42:09;94617.66;;;17.19;97.71
8280;BME280;8335;42.646;23.380;2022-09-09T03:44:36;94607.81;;;17.13;97.86
8280;BME280;8335;42.646;23.380;2022-09-09T03:47:03;94613.56;;;17.17;98.37
8280;BME280;8335;42.646;23.380;2022-09-09T03:49:30;94615.53;;;17.13;98.31
8280;BME280;8335;42.646;23.380;2022-09-09T03:51:58;94615.78;;;17.10;98.54
8280;BME280;8335;42.646;23.380;2022-09-09T03:54:26;94613.34;;;17.09;98.50
8280;BME280;8335;42.646;23.380;2022-09-09T03:56:53;94616.47;;;17.12;98.27
8280;BME280;8335;42.646;23.380;2022-09-09T03:59:20;94616.84;;;17.19;98.31
8280;BME280;8335;42.646;23.380;2022-09-09T04:01:48;94613.69;;;17.15;98.34
8280;BME280;8335;42.646;23.380;2022-09-09T04:04:15;94618.34;;;17.21;98.22
8280;BME280;8335;42.646;23.380;2022-09-09T04:06:41;94624.44;;;17.20;98.23
8280;BME280;8335;42.646;23.380;2022-09-09T04:09:10;94629.50;;;17.22;98.29
8280;BME280;8335;42.646;23.380;2022-09-09T04:11:36;94629.25;;;17.25;98.11
8280;BME280;8335;42.646;23.380;2022-09-09T04:14:03;94626.78;;;17.23;98.17
8280;BME280;8335;42.646;23.380;2022-09-09T04:16:31;94625.84;;;17.24;97.73
8280;BME280;8335;42.646;23.380;2022-09-09T04:18:58;94617.88;;;17.27;98.22
8280;BME280;8335;42.646;23.380;2022-09-09T04:21:25;94617.22;;;17.37;97.57
8280;BME280;8335;42.646;23.380;2022-09-09T04:23:52;94617.44;;;17.45;97.16
8280;BME280;8335;42.646;23.380;2022-09-09T04:26:20;94628.53;;;17.56;96.69
8280;BME280;8335;42.646;23.380;2022-09-09T04:28:46;94618.63;;;17.74;96.35
8280;BME280;8335;42.646;23.380;2022-09-09T04:31:16;94623.16;;;18.25;93.97
8280;BME280;8335;42.646;23.380;2022-09-09T04:33:44;94629.88;;;18.81;90.89
8280;BME280;8335;42.646;23.380;2022-09-09T04:36:12;94625.88;;;19.49;86.94
8280;BME280;8335;42.646;23.380;2022-09-09T04:38:38;94634.03;;;20.25;83.05
8280;BME280;8335;42.646;23.380;2022-09-09T04:41:06;94638.16;;;20.76;80.31
8280;BME280;8335;42.646;23.380;2022-09-09T04:43:34;94641.00;;;20.82;78.95
8280;BME280;8335;42.646;23.380;2022-09-09T04:46:01;94643.47;;;20.65;78.12
8280;BME280;8335;42.646;23.380;2022-09-09T04:48:27;94655.59;;;20.45;78.44
8280;BME280;8335;42.646;23.380;2022-09-09T04:50:56;94612.06;;;19.90;78.17
8280;BME280;8335;42.646;23.380;2022-09-09T04:53:23;94629.03;;;19.73;79.84
8280;BME280;8335;42.646;23.380;2022-09-09T04:55:50;94626.59;;;19.51;80.80
8280;BME280;8335;42.646;23.380;2022-09-09T04:58:17;94625.56;;;19.63;80.71
8280;BME280;8335;42.646;23.380;2022-09-09T05:00:48;94615.38;;;20.31;77.89
8280;BME280;8335;42.646;23.380;2022-09-09T05:03:16;94619.97;;;21.14;74.03
8280;BME280;8335;42.646;23.380;2022-09-09T05:05:42;94622.00;;;21.95;71.21
8280;BME280;8335;42.646;23.380;2022-09-09T05:08:11;94628.25;;;22.65;67.84
8280;BME280;8335;42.646;23.380;2022-09-09T05:10:38;94625.34;;;23.30;65.02
8280;BME280;8335;42.646;23.380;2022-09-09T05:13:07;94609.88;;;23.54;63.04
8280;BME280;8335;42.646;23.380;2022-09-09T05:15:34;94610.16;;;23.17;64.14
8280;BME280;8335;42.646;23.380;2022-09-09T05:18:03;94607.16;;;22.68;64.92
8280;BME280;8335;42.646;23.380;2022-09-09T05:20:29;94614.88;;;22.42;66.30
8280;BME280;8335;42.646;23.380;2022-09-09T05:22:57;94628.50;;;22.09;68.01
8280;BME280;8335;42.646;23.380;2022-09-09T05:25:24;94607.44;;;21.57;69.27
8280;BME280;8335;42.646;23.380;2022-09-09T05:27:51;94603.16;;;21.38;70.31
8280;BME280;8335;42.646;23.380;2022-09-09T05:30:19;94572.97;;;21.09;71.00
8280;BME280;8335;42.646;23.380;2022-09-09T05:32:47;94604.31;;;21.06;71.61
8280;BME280;8335;42.646;23.380;2022-09-09T05:35:15;94609.94;;;20.92;72.29
8280;BME280;8335;42.646;23.380;2022-09-09T05:37:44;94598.50;;;20.85;72.33
8280;BME280;8335;42.646;23.380;2022-09-09T05:40:11;94601.50;;;20.71;72.87
8280;BME280;8335;42.646;23.380;2022-09-09T05:42:38;94598.09;;;20.70;73.00
8280;BME280;8335;42.646;23.380;2022-09-09T05:45:05;94583.13;;;20.64;72.98
8280;BME280;8335;42.646;23.380;2022-09-09T05:47:33;94611.19;;;20.88;73.05
8280;BME280;8335;42.646;23.380;2022-09-09T05:49:59;94608.53;;;21.17;73.23
8280;BME280;8335;42.646;23.380;2022-09-09T05:52:27;94620.88;;;21.70;70.77
8280;BME280;8335;42.646;23.380;2022-09-09T05:54:54;94624.97;;;22.63;66.14
8280;BME280;8335;42.646;23.380;2022-09-09T05:57:22;94614.91;;;23.82;61.79
8280;BME280;8335;42.646;23.380;2022-09-09T05:59:49;94617.41;;;25.15;57.13
8280;BME280;8335;42.646;23.380;2022-09-09T06:02:16;94628.47;;;26.20;52.10
8280;BME280;8335;42.646;23.380;2022-09-09T06:04:43;94636.88;;;27.15;49.20
8280;BME280;8335;42.646;23.380;2022-09-09T06:07:09;94645.59;;;28.05;46.26
8280;BME280;8335;42.646;23.380;2022-09-09T06:09:37;94649.44;;;29.17;42.58
8280;BME280;8335;42.646;23.380;2022-09-09T06:12:05;94657.38;;;30.21;40.02
8280;BME280;8335;42.646;23.380;2022-09-09T06:14:32;94665.97;;;31.24;38.17
8280;BME280;8335;42.646;23.380;2022-09-09T06:16:58;94668.66;;;32.22;35.41
8280;BME280;8335;42.646;23.380;2022-09-09T06:19:25;94674.91;;;33.17;34.28
8280;BME280;8335;42.646;23.380;2022-09-09T06:21:52;94668.03;;;34.09;32.50
8280;BME280;8335;42.646;23.380;2022-09-09T06:24:19;94672.78;;;34.86;30.76
8280;BME280;8335;42.646;23.380;2022-09-09T06:26:47;94640.09;;;35.10;29.57
8280;BME280;8335;42.646;23.380;2022-09-09T06:29:14;94679.44;;;35.83;29.51
8280;BME280;8335;42.646;23.380;2022-09-09T06:31:41;94684.94;;;36.29;28.57
8280;BME280;8335;42.646;23.380;2022-09-09T06:34:08;94684.53;;;36.60;28.09
8280;BME280;8335;42.646;23.380;2022-09-09T06:36:37;94672.72;;;36.80;27.94
8280;BME280;8335;42.646;23.380;2022-09-09T06:39:05;94679.94;;;36.96;27.23
8280;BME280;8335;42.646;23.380;2022-09-09T06:41:33;94674.00;;;36.25;28.64
8280;BME280;8335;42.646;23.380;2022-09-09T06:44:01;94665.75;;;35.98;28.14
8280;BME280;8335;42.646;23.380;2022-09-09T06:46:30;94661.72;;;35.07;30.15
8280;BME280;8335;42.646;23.380;2022-09-09T06:48:59;94658.72;;;34.73;30.55
8280;BME280;8335;42.646;23.380;2022-09-09T06:51:27;94663.22;;;34.73;30.07
8280;BME280;8335;42.646;23.380;2022-09-09T06:53:55;94670.84;;;34.81;30.07
8280;BME280;8335;42.646;23.380;2022-09-09T06:56:24;94673.97;;;34.90;29.83
8280;BME280;8335;42.646;23.380;2022-09-09T06:58:53;94681.75;;;35.03;29.85
8280;BME280;8335;42.646;23.380;2022-09-09T07:01:24;94686.81;;;35.58;29.51
8280;BME280;8335;42.646;23.380;2022-09-09T07:03:52;94686.38;;;36.08;27.84
8280;BME280;8335;42.646;23.380;2022-09-09T07:06:21;94681.41;;;36.23;28.32
8280;BME280;8335;42.646;23.380;2022-09-09T07:08:50;94689.81;;;36.44;27.15
8280;BME280;8335;42.646;23.380;2022-09-09T07:11:18;94695.97;;;36.61;27.62
8280;BME280;8335;42.646;23.380;2022-09-09T07:13:45;94697.75;;;36.72;27.83
8280;BME280;8335;42.646;23.380;2022-09-09T07:16:14;94687.47;;;36.76;27.74
8280;BME280;8335;42.646;23.380;2022-09-09T07:18:43;94667.84;;;36.88;27.22
8280;BME280;8335;42.646;23.380;2022-09-09T07:21:11;94688.00;;;37.18;26.97
8280;BME280;8335;42.646;23.380;2022-09-09T07:23:38;94686.53;;;37.39;26.74
8280;BME280;8335;42.646;23.380;2022-09-09T07:26:08;94688.88;;;37.52;25.40
8280;BME280;8335;42.646;23.380;2022-09-09T07:28:36;94691.34;;;37.42;25.82
8280;BME280;8335;42.646;23.380;2022-09-09T07:31:03;94686.44;;;37.51;26.06
8280;BME280;8335;42.646;23.380;2022-09-09T07:33:31;94658.25;;;37.50;25.91
8280;BME280;8335;42.646;23.380;2022-09-09T07:36:05;94646.41;;;37.57;26.21
8280;BME280;8335;42.646;23.380;2022-09-09T07:38:38;94681.09;;;37.17;25.52
8280;BME280;8335;42.646;23.380;2022-09-09T07:41:07;94663.03;;;36.45;26.29
8280;BME280;8335;42.646;23.380;2022-09-09T07:43:37;94671.59;;;35.77;27.64
8280;BME280;8335;42.646;23.380;2022-09-09T07:46:04;94675.97;;;35.71;27.78
8280;BME280;8335;42.646;23.380;2022-09-09T07:48:31;94675.75;;;35.84;27.55
8280;BME280;8335;42.646;23.380;2022-09-09T07:51:11;94677.88;;;35.94;27.69
8280;BME280;8335;42.646;23.380;2022-09-09T07:53:42;94681.28;;;35.71;27.57
8280;BME280;8335;42.646;23.380;2022-09-09T07:56:11;94680.88;;;35.33;27.36
8280;BME280;8335;42.646;23.380;2022-09-09T07:58:38;94672.25;;;35.37;28.03
8280;BME280;8335;42.646;23.380;2022-09-09T08:01:07;94680.22;;;35.49;27.68
8280;BME280;8335;42.646;23.380;2022-09-09T08:03:35;94678.84;;;35.46;27.72
8280;BME280;8335;42.646;23.380;2022-09-09T08:06:02;94669.19;;;35.87;27.79
8280;BME280;8335;42.646;23.380;2022-09-09T08:08:30;94676.53;;;36.32;28.02
8280;BME280;8335;42.646;23.380;2022-09-09T08:11:05;94674.50;;;35.87;27.46
8280;BME280;8335;42.646;23.380;2022-09-09T08:13:33;94634.06;;;35.45;27.74
8280;BME280;8335;42.646;23.380;2022-09-09T08:16:08;94670.69;;;35.06;28.07
8280;BME280;8335;42.646;23.380;2022-09-09T08:18:35;94669.16;;;34.68;28.79
8280;BME280;8335;42.646;23.380;2022-09-09T08:21:11;94639.41;;;33.63;30.46
8280;BME280;8335;42.646;23.380;2022-09-09T08:23:40;94669.72;;;33.60;30.71
8280;BME280;8335;42.646;23.380;2022-09-09T08:26:10;94662.47;;;33.24;30.67
8280;BME280;8335;42.646;23.380;2022-09-09T08:28:38;94662.94;;;32.83;31.40
8280;BME280;8335;42.646;23.380;2022-09-09T08:31:06;94659.09;;;32.41;32.32
8280;BME280;8335;42.646;23.380;2022-09-09T08:33:33;94651.16;;;31.63;33.70
8280;BME280;8335;42.646;23.380;2022-09-09T08:36:02;94661.47;;;31.58;34.08
8280;BME280;8335;42.646;23.380;2022-09-09T08:38:28;94654.81;;;31.42;33.69
8280;BME280;8335;42.646;23.380;2022-09-09T08:43:46;94652.75;;;30.84;35.37
8280;BME280;8335;42.646;23.380;2022-09-09T08:46:18;94651.13;;;30.90;35.26
8280;BME280;8335;42.646;23.380;2022-09-09T08:48:53;94643.28;;;31.16;34.74
8280;BME280;8335;42.646;23.380;2022-09-09T08:51:25;94643.91;;;31.25;35.05
8280;BME280;8335;42.646;23.380;2022-09-09T08:53:54;94646.53;;;31.32;34.82
8280;BME280;8335;42.646;23.380;2022-09-09T08:56:27;94634.78;;;31.28;35.17
8280;BME280;8335;42.646;23.380;2022-09-09T08:58:59;94618.78;;;31.03;35.63
8280;BME280;8335;42.646;23.380;2022-09-09T09:01:42;94633.59;;;31.23;35.74
8280;BME280;8335;42.646;23.380;2022-09-09T09:04:28;94635.22;;;31.25;35.25
8280;BME280;8335;42.646;23.380;2022-09-09T09:07:03;94643.69;;;31.40;35.29
8280;BME280;8335;42.646;23.380;2022-09-09T09:09:39;94640.69;;;31.23;34.49
8280;BME280;8335;42.646;23.380;2022-09-09T09:12:16;94642.66;;;31.21;35.06
8280;BME280;8335;42.646;23.380;2022-09-09T09:14:46;94642.09;;;31.32;34.74
8280;BME280;8335;42.646;23.380;2022-09-09T09:17:15;94634.19;;;31.39;35.30
8280;BME280;8335;42.646;23.380;2022-09-09T09:19:43;94639.84;;;31.49;35.76
8280;BME280;8335;42.646;23.380;2022-09-09T09:22:17;94623.44;;;31.47;34.94
8280;BME280;8335;42.646;23.380;2022-09-09T09:24:50;94630.09;;;31.63;35.19
8280;BME280;8335;42.646;23.380;2022-09-09T09:27:28;94624.63;;;31.58;35.02
8280;BME280;8335;42.646;23.380;2022-09-09T09:29:58;94624.03;;;31.49;35.55
8280;BME280;8335;42.646;23.380;2022-09-09T09:32:30;94631.56;;;31.26;35.81
8280;BME280;8335;42.646;23.380;2022-09-09T09:34:58;94635.78;;;30.87;35.95
8280;BME280;8335;42.646;23.380;2022-09-09T09:37:29;94635.75;;;30.74;36.87
8280;BME280;8335;42.646;23.380;2022-09-09T09:40:06;94632.72;;;30.77;37.37
8280;BME280;8335;42.646;23.380;2022-09-09T09:42:36;94628.47;;;30.76;36.92
8280;BME280;8335;42.646;23.380;2022-09-09T09:45:16;94623.44;;;30.87;36.64
8280;BME280;8335;42.646;23.380;2022-09-09T09:47:44;94621.22;;;30.98;37.30
8280;BME280;8335;42.646;23.380;2022-09-09T09:50:19;94613.94;;;31.06;36.90
8280;BME280;8335;42.646;23.380;2022-09-09T09:52:54;94613.75;;;31.28;36.10
8280;BME280;8335;42.646;23.380;2022-09-09T09:55:23;94608.28;;;31.03;36.42
8280;BME280;8335;42.646;23.380;2022-09-09T09:57:51;94603.81;;;31.03;35.78
8280;BME280;8335;42.646;23.380;2022-09-09T10:00:21;94604.22;;;31.13;36.26
8280;BME280;8335;42.646;23.380;2022-09-09T10:02:49;94552.03;;;30.77;36.77
8280;BME280;8335;42.646;23.380;2022-09-09T10:05:22;94605.16;;;30.53;37.16
8280;BME280;8335;42.646;23.380;2022-09-09T10:08:01;94595.13;;;31.03;37.22
8280;BME280;8335;42.646;23.380;2022-09-09T10:10:41;94604.66;;;31.30;36.23
8280;BME280;8335;42.646;23.380;2022-09-09T10:13:16;94584.38;;;30.91;37.03
8280;BME280;8335;42.646;23.380;2022-09-09T10:15:56;94612.13;;;30.93;36.79
8280;BME280;8335;42.646;23.380;2022-09-09T10:18:38;94604.00;;;30.68;37.41
8280;BME280;8335;42.646;23.380;2022-09-09T10:21:17;94610.16;;;30.34;37.72
8280;BME280;8335;42.646;23.380;2022-09-09T10:24:02;94609.41;;;30.06;38.31
8280;BME280;8335;42.646;23.380;2022-09-09T10:26:39;94618.19;;;29.85;39.06
8280;BME280;8335;42.646;23.380;2022-09-09T10:29:26;94605.94;;;29.57;39.61
8280;BME280;8335;42.646;23.380;2022-09-09T10:32:05;94613.69;;;29.38;40.20
8280;BME280;8335;42.646;23.380;2022-09-09T10:34:55;94616.25;;;29.31;40.63
8280;BME280;8335;42.646;23.380;2022-09-09T10:37:37;94612.72;;;29.17;40.86
8280;BME280;8335;42.646;23.380;2022-09-09T10:40:20;94613.88;;;29.15;41.15
8280;BME280;8335;42.646;23.380;2022-09-09T10:42:53;94617.50;;;29.14;41.91
8280;BME280;8335;42.646;23.380;2022-09-09T10:45:32;94613.38;;;28.98;41.88
8280;BME280;8335;42.646;23.380;2022-09-09T10:48:12;94618.78;;;28.75;42.51
8280;BME280;8335;42.646;23.380;2022-09-09T10:50:53;94611.94;;;28.74;43.02
8280;BME280;8335;42.646;23.380;2022-09-09T10:53:40;94614.91;;;28.71;43.97
8280;BME280;8335;42.646;23.380;2022-09-09T10:56:14;94618.09;;;28.66;43.06
8280;BME280;8335;42.646;23.380;2022-09-09T10:58:47;94609.84;;;28.69;43.13
8280;BME280;8335;42.646;23.380;2022-09-09T11:01:20;94610.91;;;28.75;43.38
8280;BME280;8335;42.646;23.380;2022-09-09T11:03:54;94596.63;;;28.56;43.09
8280;BME280;8335;42.646;23.380;2022-09-09T11:06:27;94596.25;;;28.38;43.78
8280;BME280;8335;42.646;23.380;2022-09-09T11:08:57;94611.03;;;28.45;44.31
8280;BME280;8335;42.646;23.380;2022-09-09T11:11:29;94617.44;;;28.43;44.31
8280;BME280;8335;42.646;23.380;2022-09-09T11:13:59;94626.06;;;28.37;44.87
8280;BME280;8335;42.646;23.380;2022-09-09T11:16:34;94595.63;;;28.21;45.05
8280;BME280;8335;42.646;23.380;2022-09-09T11:19:11;94620.19;;;28.35;45.08
8280;BME280;8335;42.646;23.380;2022-09-09T11:21:43;94556.50;;;27.98;44.74
8280;BME280;8335;42.646;23.380;2022-09-09T11:24:15;94604.28;;;28.21;45.45
8280;BME280;8335;42.646;23.380;2022-09-09T11:26:47;94600.34;;;28.11;45.51
8280;BME280;8335;42.646;23.380;2022-09-09T11:29:38;94592.31;;;28.12;46.32
8280;BME280;8335;42.646;23.380;2022-09-09T11:32:24;94592.56;;;28.32;46.48
8280;BME280;8335;42.646;23.380;2022-09-09T11:35:17;94584.25;;;28.50;45.83
8280;BME280;8335;42.646;23.380;2022-09-09T11:38:03;94580.84;;;28.71;45.45
8280;BME280;8335;42.646;23.380;2022-09-09T11:40:33;94570.22;;;28.79;44.21
8280;BME280;8335;42.646;23.380;2022-09-09T11:43:05;94572.38;;;28.69;44.02
8280;BME280;8335;42.646;23.380;2022-09-09T11:45:39;94563.28;;;28.43;45.40
8280;BME280;8335;42.646;23.380;2022-09-09T11:48:23;94561.75;;;28.34;45.29
8280;BME280;8335;42.646;23.380;2022-09-09T11:50:58;94549.03;;;28.31;46.06
8280;BME280;8335;42.646;23.380;2022-09-09T11:53:25;94529.00;;;28.23;45.31
8280;BME280;8335;42.646;23.380;2022-09-09T11:56:26;94528.31;;;28.15;45.97
8280;BME280;8335;42.646;23.380;2022-09-09T11:58:56;94493.38;;;27.86;46.62
8280;BME280;8335;42.646;23.380;2022-09-09T12:01:34;94529.25;;;27.92;46.05
8280;BME280;8335;42.646;23.380;2022-09-09T12:04:32;94527.09;;;27.96;47.07
8280;BME280;8335;42.646;23.380;2022-09-09T12:07:01;94525.78;;;28.07;46.19
8280;BME280;8335;42.646;23.380;2022-09-09T12:09:33;94534.38;;;28.15;45.93
8280;BME280;8335;42.646;23.380;2022-09-09T12:12:23;94533.84;;;28.05;46.18
8280;BME280;8335;42.646;23.380;2022-09-09T12:15:00;94512.63;;;28.00;46.61
8280;BME280;8335;42.646;23.380;2022-09-09T12:17:29;94513.16;;;28.10;46.32
8280;BME280;8335;42.646;23.380;2022-09-09T12:20:13;94522.31;;;28.21;45.41
8280;BME280;8335;42.646;23.380;2022-09-09T12:22:58;94525.72;;;28.36;47.01
8280;BME280;8335;42.646;23.380;2022-09-09T12:25:34;94515.75;;;28.46;45.32
8280;BME280;8335;42.646;23.380;2022-09-09T12:28:08;94517.03;;;28.57;44.78
8280;BME280;8335;42.646;23.380;2022-09-09T12:30:43;94513.91;;;28.68;44.55
8280;BME280;8335;42.646;23.380;2022-09-09T12:33:16;94509.47;;;28.69;45.02
8280;BME280;8335;42.646;23.380;2022-09-09T12:35:51;94505.66;;;28.71;44.63
8280;BME280;8335;42.646;23.380;2022-09-09T12:38:24;94504.19;;;28.62;45.70
8280;BME280;8335;42.646;23.380;2022-09-09T12:40:56;94497.28;;;28.55;45.48
8280;BME280;8335;42.646;23.380;2022-09-09T12:43:24;94496.47;;;28.54;45.12
8280;BME280;8335;42.646;23.380;2022-09-09T12:45:54;94485.59;;;28.57;45.24
8280;BME280;8335;42.646;23.380;2022-09-09T12:48:29;94492.94;;;28.68;45.96
8280;BME280;8335;42.646;23.380;2022-09-09T12:50:58;94499.25;;;28.74;44.90
8280;BME280;8335;42.646;23.380;2022-09-09T12:53:28;94493.59;;;28.77;44.82
8280;BME280;8335;42.646;23.380;2022-09-09T12:55:57;94495.06;;;28.79;44.94
8280;BME280;8335;42.646;23.380;2022-09-09T12:58:25;94490.66;;;28.87;44.62
8280;BME280;8335;42.646;23.380;2022-09-09T13:00:54;94488.28;;;28.92;44.24
8280;BME280;8335;42.646;23.380;2022-09-09T13:03:23;94479.88;;;28.96;44.14
8280;BME280;8335;42.646;23.380;2022-09-09T13:05:50;94472.41;;;29.00;44.28
8280;BME280;8335;42.646;23.380;2022-09-09T13:08:19;94471.44;;;29.08;44.16
8280;BME280;8335;42.646;23.380;2022-09-09T13:10:49;94468.06;;;29.14;44.77
8280;BME280;8335;42.646;23.380;2022-09-09T13:13:21;94443.53;;;28.93;44.44
8280;BME280;8335;42.646;23.380;2022-09-09T13:15:51;94464.41;;;29.08;43.87
8280;BME280;8335;42.646;23.380;2022-09-09T13:18:21;94463.56;;;29.08;45.25
8280;BME280;8335;42.646;23.380;2022-09-09T13:20:49;94446.34;;;28.92;45.29
8280;BME280;8335;42.646;23.380;2022-09-09T13:23:19;94455.91;;;29.06;45.07
8280;BME280;8335;42.646;23.380;2022-09-09T13:25:53;94463.16;;;29.04;43.75
8280;BME280;8335;42.646;23.380;2022-09-09T13:28:22;94456.28;;;28.96;44.74
8280;BME280;8335;42.646;23.380;2022-09-09T13:30:56;94456.47;;;28.95;44.51
8280;BME280;8335;42.646;23.380;2022-09-09T13:33:31;94444.34;;;28.66;45.70
8280;BME280;8335;42.646;23.380;2022-09-09T13:36:01;94448.16;;;28.63;46.50